createdAt,value
2019-04-13T00:02:04.861Z,102854.80
2019-04-13T00:04:56.328Z,103218.31
2019-04-13T00:07:25.709Z,103222.25
2019-04-13T00:09:54.898Z,103226.52
2019-04-13T00:12:31.909Z,103227.67
2019-04-13T00:15:01.093Z,103225.33
2019-04-13T00:17:30.295Z,103223.70
2019-04-13T00:19:59.894Z,103228.50
2019-04-13T00:22:29.202Z,103227.39
2019-04-13T00:24:58.391Z,103222.98
2019-04-13T00:27:27.880Z,103226.64
2019-04-13T00:29:57.019Z,103218.75
2019-04-13T00:32:26.384Z,103227.02
2019-04-13T00:34:55.709Z,103222.58
2019-04-13T00:37:24.992Z,103226.07
2019-04-13T00:39:54.183Z,103217.48
2019-04-13T00:42:23.814Z,103217.52
2019-04-13T00:44:53.011Z,103217.34
2019-04-13T00:47:22.246Z,103219.37
2019-04-13T00:49:51.716Z,103214.62
2019-04-13T00:52:21.980Z,103220.52
2019-04-13T00:54:51.286Z,103223.13
2019-04-13T00:57:20.743Z,103224.47
2019-04-13T00:59:49.939Z,103224.09
2019-04-13T01:02:19.140Z,103226.87
2019-04-13T01:04:53.638Z,103232.02
2019-04-13T01:07:19.671Z,103230.94
2019-04-13T01:09:49.068Z,103225.81
2019-04-13T01:12:18.326Z,103227.09
2019-04-13T01:14:47.517Z,103225.30
2019-04-13T01:17:16.878Z,103234.30
2019-04-13T01:19:46.116Z,103233.38
2019-04-13T01:22:15.318Z,103236.73
2019-04-13T01:24:44.686Z,103225.89
2019-04-13T01:27:13.904Z,103229.00
2019-04-13T01:29:43.304Z,103226.97
2019-04-13T01:32:12.676Z,103231.75
2019-04-13T01:34:42.272Z,103231.38
2019-04-13T01:37:11.482Z,103234.16
2019-04-13T01:39:40.812Z,103229.95
2019-04-13T01:42:10.046Z,103237.30
2019-04-13T01:44:39.263Z,103236.58
2019-04-13T01:47:08.580Z,103233.09
2019-04-13T01:49:37.834Z,103230.91
2019-04-13T01:52:07.036Z,103233.85
2019-04-13T01:54:36.477Z,103235.14
2019-04-13T01:57:05.728Z,103236.08
2019-04-13T01:59:34.919Z,103232.59
2019-04-13T02:02:08.073Z,103233.88
2019-04-13T02:04:52.418Z,103237.02
2019-04-13T02:07:40.765Z,103241.98
2019-04-13T02:10:13.354Z,103237.21
2019-04-13T02:12:42.745Z,103246.22
2019-04-13T02:15:12.509Z,103243.84
2019-04-13T02:17:41.720Z,103244.95
2019-04-13T02:20:11.560Z,103246.97
2019-04-13T02:22:40.768Z,103248.28
2019-04-13T02:25:10.023Z,103248.11
2019-04-13T02:27:39.372Z,103247.19
2019-04-13T02:30:10.585Z,103247.38
2019-04-13T02:32:40.003Z,103250.34
2019-04-13T02:35:09.305Z,103250.72
2019-04-13T02:37:38.991Z,103258.61
2019-04-13T02:40:08.843Z,103259.89
2019-04-13T02:42:38.070Z,103257.34
2019-04-13T02:45:07.789Z,103261.77
2019-04-13T02:47:37.243Z,103266.91
2019-04-13T02:50:07.403Z,103263.59
2019-04-13T02:52:36.647Z,103267.84
2019-04-13T02:55:06.256Z,103267.66
2019-04-13T02:57:35.441Z,103269.30
2019-04-13T03:00:05.335Z,103266.38
2019-04-13T03:02:35.187Z,103266.56
2019-04-13T03:05:05.516Z,103265.84
2019-04-13T03:07:34.735Z,103263.66
2019-04-13T03:10:04.731Z,103266.23
2019-04-13T03:12:34.059Z,103265.31
2019-04-13T03:15:03.737Z,103269.17
2019-04-13T03:17:42.456Z,103267.87
2019-04-13T03:20:19.807Z,103267.50
2019-04-13T03:22:49.258Z,103268.98
2019-04-13T03:25:18.639Z,103269.73
2019-04-13T03:27:47.836Z,103266.44
2019-04-13T03:30:20.149Z,103263.50
2019-04-13T03:32:49.342Z,103264.61
2019-04-13T03:35:18.600Z,103265.35
2019-04-13T03:37:48.333Z,103262.42
2019-04-13T03:40:17.631Z,103268.29
2019-04-13T03:42:46.820Z,103269.58
2019-04-13T03:45:16.154Z,103268.66
2019-04-13T03:47:45.368Z,103271.05
2019-04-13T03:50:14.547Z,103263.16
2019-04-13T03:52:44.024Z,103263.70
2019-04-13T03:55:13.330Z,103261.69
2019-04-13T03:57:42.541Z,103265.91
2019-04-13T04:00:11.964Z,103267.37
2019-04-13T04:02:41.158Z,103272.70
2019-04-13T04:05:10.631Z,103269.02
2019-04-13T04:07:40.031Z,103269.94
2019-04-13T04:10:09.451Z,103271.03
2019-04-13T04:12:38.668Z,103277.09
2019-04-13T04:15:09.152Z,103270.85
2019-04-13T04:17:38.351Z,103281.50
2019-04-13T04:20:07.578Z,103277.09
2019-04-13T04:22:36.914Z,103277.27
2019-04-13T04:25:06.495Z,103274.50
2019-04-13T04:27:35.692Z,103277.25
2019-04-13T04:30:05.736Z,103276.69
2019-04-13T04:32:34.923Z,103281.26
2019-04-13T04:35:04.143Z,103284.36
2019-04-13T04:37:33.579Z,103286.19
2019-04-13T04:40:02.915Z,103285.06
2019-04-13T04:42:32.430Z,103149.27
2019-04-13T04:45:01.983Z,103287.97
2019-04-13T04:47:31.230Z,103282.44
2019-04-13T04:50:00.434Z,103289.02
2019-04-13T04:52:29.897Z,103287.89
2019-04-13T04:54:59.087Z,103157.95
2019-04-13T04:57:28.284Z,103286.35
2019-04-13T04:59:57.915Z,103287.80
2019-04-13T05:02:27.081Z,103290.15
2019-04-13T05:04:56.276Z,103286.27
2019-04-13T05:07:25.788Z,103287.33
2019-04-13T05:09:55.119Z,103292.62
2019-04-13T05:12:24.317Z,103290.03
2019-04-13T05:14:53.750Z,103287.06
2019-04-13T05:17:23.026Z,103287.20
2019-04-13T05:19:52.237Z,103289.38
2019-04-13T05:22:26.348Z,103241.92
2019-04-13T05:24:52.602Z,103293.16
2019-04-13T05:27:22.125Z,103296.42
2019-04-13T05:29:51.361Z,103298.20
2019-04-13T05:32:20.548Z,103302.00
2019-04-13T05:34:49.826Z,103307.47
2019-04-13T05:37:19.101Z,103302.08
2019-04-13T05:39:48.254Z,103304.96
2019-04-13T05:42:17.601Z,103306.55
2019-04-13T05:44:46.940Z,103310.69
2019-04-13T05:47:16.114Z,103303.63
2019-04-13T05:49:45.529Z,103303.72
2019-04-13T05:52:14.763Z,103307.64
2019-04-13T05:54:43.953Z,103304.23
2019-04-13T05:57:13.621Z,103310.02
2019-04-13T05:59:42.875Z,103306.61
2019-04-13T06:02:12.067Z,103312.39
2019-04-13T06:04:41.419Z,103313.38
2019-04-13T06:07:10.649Z,103316.78
2019-04-13T06:09:39.870Z,103315.78
2019-04-13T06:12:10.345Z,103316.97
2019-04-13T06:14:39.799Z,103319.62
2019-04-13T06:17:08.941Z,103319.30
2019-04-13T06:19:38.348Z,103321.95
2019-04-13T06:22:07.563Z,103322.75
2019-04-13T06:24:36.750Z,103326.15
2019-04-13T06:27:06.040Z,103322.70
2019-04-13T06:29:35.260Z,103322.97
2019-04-13T06:32:38.894Z,103316.23
2019-04-13T06:35:16.226Z,103321.66
2019-04-13T06:37:48.222Z,103328.16
2019-04-13T06:40:16.568Z,103323.79
2019-04-13T06:42:49.858Z,103324.14
2019-04-13T06:45:17.200Z,103320.23
2019-04-13T06:47:47.138Z,103323.09
2019-04-13T06:50:16.358Z,103331.13
2019-04-13T06:52:45.570Z,103326.89
2019-04-13T06:55:16.278Z,103326.83
2019-04-13T06:57:46.212Z,103098.19
2019-04-13T07:00:16.514Z,103318.02
2019-04-13T07:02:45.650Z,103317.59
2019-04-13T07:05:15.162Z,103316.92
2019-04-13T07:07:52.256Z,103315.59
2019-04-13T07:10:44.207Z,103319.32
2019-04-13T07:13:16.244Z,103316.07
2019-04-13T07:15:47.388Z,103309.26
2019-04-13T07:18:18.467Z,103301.47
2019-04-13T07:20:48.349Z,103302.33
2019-04-13T07:23:18.076Z,103301.27
2019-04-13T07:25:47.406Z,103300.52
2019-04-13T07:28:16.595Z,103297.15
2019-04-13T07:30:48.683Z,103294.94
2019-04-13T07:33:18.094Z,103300.52
2019-04-13T07:35:47.417Z,103298.65
2019-04-13T07:38:16.675Z,103296.52
2019-04-13T07:40:45.953Z,103287.73
2019-04-13T07:43:15.155Z,103289.65
2019-04-13T07:46:00.116Z,103297.55
2019-04-13T07:49:00.554Z,103299.95
2019-04-13T07:51:51.305Z,103290.91
2019-04-13T07:54:19.316Z,103290.41
2019-04-13T07:56:48.505Z,103290.41
2019-04-13T07:59:19.023Z,103290.80
2019-04-13T08:01:56.536Z,103292.48
2019-04-13T08:04:19.595Z,103305.14
2019-04-13T08:06:48.821Z,103289.47
2019-04-13T08:09:18.076Z,103298.25
2019-04-13T08:11:47.391Z,103296.59
2019-04-13T08:14:23.978Z,103295.00
2019-04-13T08:16:53.374Z,103299.47
2019-04-13T08:19:23.450Z,103301.44
2019-04-13T08:21:52.683Z,103299.17
2019-04-13T08:24:21.968Z,103296.61
2019-04-13T08:26:51.151Z,103289.12
2019-04-13T08:29:20.400Z,103296.50
2019-04-13T08:31:50.108Z,103304.74
2019-04-13T08:34:19.305Z,103306.56
2019-04-13T08:36:48.549Z,103308.17
2019-04-13T08:39:17.981Z,103305.24
2019-04-13T08:41:51.418Z,103310.89
2019-04-13T08:44:18.456Z,103310.89
2019-04-13T08:46:48.046Z,103322.53
2019-04-13T08:49:17.266Z,103325.09
2019-04-13T08:51:46.866Z,103333.21
2019-04-13T08:54:16.364Z,103327.95
2019-04-13T08:56:45.551Z,103335.84
2019-04-13T08:59:14.796Z,103337.77
2019-04-13T09:01:44.457Z,103342.57
2019-04-13T09:04:13.677Z,103347.27
2019-04-13T09:06:42.917Z,103350.84
2019-04-13T09:09:12.345Z,103347.83
2019-04-13T09:11:41.565Z,103348.72
2019-04-13T09:14:13.231Z,103348.75
2019-04-13T09:16:43.313Z,103348.94
2019-04-13T09:19:34.878Z,103345.87
2019-04-13T09:22:05.566Z,103347.88
2019-04-13T09:24:34.793Z,103350.52
2019-04-13T09:27:07.249Z,103365.27
2019-04-13T09:29:35.109Z,103358.09
2019-04-13T09:32:04.423Z,103355.73
2019-04-13T09:34:34.896Z,103354.17
2019-04-13T09:37:04.541Z,103353.91
2019-04-13T09:39:33.772Z,103354.05
2019-04-13T09:42:02.974Z,103351.84
2019-04-13T09:44:32.478Z,103358.89
2019-04-13T09:47:20.836Z,103359.68
2019-04-13T09:49:50.400Z,103358.11
2019-04-13T09:52:19.636Z,103365.14
2019-04-13T09:54:49.379Z,103366.57
2019-04-13T09:57:18.925Z,103363.03
2019-04-13T09:59:48.096Z,103366.67
2019-04-13T10:02:17.334Z,103365.21
2019-04-13T10:04:49.206Z,103369.49
2019-04-13T10:07:19.785Z,103366.48
2019-04-13T10:09:49.609Z,103365.17
2019-04-13T10:12:30.758Z,103361.88
2019-04-13T10:15:23.291Z,103358.47
2019-04-13T10:17:56.501Z,103367.52
2019-04-13T10:20:25.805Z,103353.40
2019-04-13T10:22:56.578Z,103351.66
2019-04-13T10:25:25.747Z,103354.20
2019-04-13T10:27:55.039Z,103350.06
2019-04-13T10:30:24.249Z,103356.15
2019-04-13T10:32:53.639Z,103356.30
2019-04-13T10:35:23.161Z,103355.41
2019-04-13T10:37:54.795Z,103354.77
2019-04-13T10:40:24.481Z,103354.93
2019-04-13T10:42:53.681Z,103356.36
2019-04-13T10:45:54.250Z,103354.38
2019-04-13T10:48:38.416Z,103352.69
2019-04-13T10:51:14.666Z,103353.32
2019-04-13T10:53:43.858Z,103349.58
2019-04-13T10:56:13.385Z,103358.92
2019-04-13T10:58:42.914Z,103356.44
2019-04-13T11:01:14.633Z,103352.09
2019-04-13T11:03:43.069Z,103357.32
2019-04-13T11:06:12.620Z,103359.14
2019-04-13T11:08:41.940Z,103358.99
2019-04-13T11:11:11.246Z,103357.56
2019-04-13T11:13:40.618Z,103359.39
2019-04-13T11:16:09.921Z,103357.09
2019-04-13T11:18:39.218Z,103364.98
2019-04-13T11:21:08.727Z,103359.97
2019-04-13T11:23:45.072Z,103357.91
2019-04-13T11:26:09.367Z,103356.08
2019-04-13T11:28:39.294Z,103353.13
2019-04-13T11:31:09.064Z,103356.77
2019-04-13T11:33:38.831Z,103354.34
2019-04-13T11:36:08.194Z,103356.84
2019-04-13T11:38:37.547Z,103357.78
2019-04-13T11:41:20.038Z,103355.96
2019-04-13T11:44:08.176Z,103351.04
2019-04-13T11:46:58.906Z,103356.06
2019-04-13T11:49:29.150Z,103356.33
2019-04-13T11:51:58.346Z,103350.31
2019-04-13T11:54:28.311Z,103357.60
2019-04-13T11:56:57.667Z,103356.81
2019-04-13T11:59:26.910Z,103357.96
2019-04-13T12:02:18.603Z,103355.34
2019-04-13T12:05:06.769Z,103351.58
2019-04-13T12:07:54.043Z,103355.40
2019-04-13T12:10:40.608Z,103351.32
2019-04-13T12:13:41.032Z,103360.11
2019-04-13T12:16:27.734Z,103352.03
2019-04-13T12:19:06.725Z,103326.64
2019-04-13T12:21:50.363Z,103355.53
2019-04-13T12:24:30.643Z,103348.21
2019-04-13T12:27:00.220Z,103350.80
2019-04-13T12:29:29.412Z,103347.70
2019-04-13T12:31:58.851Z,103344.48
2019-04-13T12:34:28.198Z,103346.94
2019-04-13T12:36:57.380Z,103342.44
2019-04-13T12:39:27.771Z,103348.06
2019-04-13T12:42:00.168Z,103345.69
2019-04-13T12:44:37.173Z,103342.68
2019-04-13T12:47:01.017Z,103346.48
2019-04-13T12:49:30.404Z,103341.25
2019-04-13T12:51:59.604Z,103339.95
2019-04-13T12:54:29.439Z,103340.58
2019-04-13T12:56:59.121Z,103338.48
2019-04-13T12:59:28.498Z,103340.42
2019-04-13T13:02:31.925Z,103347.59
2019-04-13T13:05:16.851Z,103342.92
2019-04-13T13:07:46.169Z,103340.62
2019-04-13T13:10:15.891Z,103335.84
2019-04-13T13:12:46.314Z,103345.98
2019-04-13T13:15:16.060Z,103334.73
2019-04-13T13:17:45.269Z,103333.34
2019-04-13T13:20:16.908Z,103331.31
2019-04-13T13:22:45.746Z,103329.62
2019-04-13T13:25:15.207Z,103335.03
2019-04-13T13:27:44.430Z,103329.77
2019-04-13T13:30:13.881Z,103334.17
2019-04-13T13:32:43.073Z,103331.20
2019-04-13T13:35:12.570Z,103339.33
2019-04-13T13:37:41.982Z,103331.45
2019-04-13T13:40:13.356Z,103333.58
2019-04-13T13:42:42.793Z,103326.72
2019-04-13T13:45:12.765Z,103329.44
2019-04-13T13:47:42.001Z,103327.75
2019-04-13T13:50:11.714Z,103328.43
2019-04-13T13:52:41.178Z,103331.59
2019-04-13T13:55:11.789Z,103306.70
2019-04-13T13:57:46.373Z,103301.22
2019-04-13T14:00:19.009Z,103304.06
2019-04-13T14:02:48.484Z,103314.48
2019-04-13T14:05:19.841Z,103289.74
2019-04-13T14:07:49.292Z,103289.74
2019-04-13T14:10:21.299Z,103295.31
2019-04-13T14:12:50.724Z,103294.91
2019-04-13T14:15:20.075Z,103288.00
2019-04-13T14:17:51.230Z,103291.19
2019-04-13T14:20:20.563Z,103288.16
2019-04-13T14:22:52.578Z,103291.47
2019-04-13T14:25:22.029Z,103287.63
2019-04-13T14:27:52.742Z,103294.91
2019-04-13T14:30:21.989Z,103287.98
2019-04-13T14:32:51.370Z,103289.80
2019-04-13T14:35:20.698Z,103285.05
2019-04-13T14:37:51.200Z,103288.06
2019-04-13T14:40:21.319Z,103287.23
2019-04-13T14:42:50.539Z,103292.79
2019-04-13T14:45:19.746Z,103285.87
2019-04-13T14:47:49.112Z,103284.13
2019-04-13T14:50:18.442Z,103286.10
2019-04-13T14:52:47.996Z,103284.39
2019-04-13T14:55:17.304Z,103283.77
2019-04-13T14:57:46.647Z,103278.61
2019-04-13T15:00:15.931Z,103278.14
2019-04-13T15:02:45.510Z,103280.37
2019-04-13T15:05:15.601Z,103272.63
2019-04-13T15:07:44.996Z,103267.77
2019-04-13T15:10:14.967Z,103264.50
2019-04-13T15:12:44.225Z,103264.36
2019-04-13T15:15:13.633Z,103261.72
2019-04-13T15:18:09.654Z,103256.61
2019-04-13T15:20:41.991Z,103266.38
2019-04-13T15:23:10.693Z,103264.25
2019-04-13T15:25:39.974Z,103264.25
2019-04-13T15:28:10.621Z,103267.63
2019-04-13T15:30:44.617Z,103262.74
2019-04-13T15:33:13.677Z,103264.45
2019-04-13T15:35:46.328Z,103264.69
2019-04-13T15:38:18.160Z,103267.02
2019-04-13T15:40:45.186Z,103264.55
2019-04-13T15:43:20.618Z,103265.75
2019-04-13T15:45:50.275Z,103252.86
2019-04-13T15:48:18.211Z,103252.72
2019-04-13T15:50:47.552Z,103253.66
2019-04-13T15:53:16.756Z,103251.52
2019-04-13T15:55:46.132Z,103255.09
2019-04-13T15:58:16.376Z,103251.26
2019-04-13T16:00:46.020Z,103255.34
2019-04-13T16:03:16.944Z,103256.39
2019-04-13T16:05:47.428Z,103256.69
2019-04-13T16:08:17.922Z,103254.46
2019-04-13T16:11:03.486Z,103260.14
2019-04-13T16:13:33.295Z,103269.99
2019-04-13T16:16:02.856Z,103261.19
2019-04-13T16:18:32.867Z,103267.72
2019-04-13T16:21:02.533Z,103267.17
2019-04-13T16:23:32.665Z,103268.09
2019-04-13T16:26:02.050Z,103267.67
2019-04-13T16:29:07.658Z,103265.85
2019-04-13T16:31:53.080Z,103261.31
2019-04-13T16:34:59.978Z,103267.33
2019-04-13T16:37:39.111Z,103265.29
2019-04-13T16:40:08.663Z,103269.63
2019-04-13T16:42:38.345Z,103273.48
2019-04-13T16:45:38.451Z,103269.20
2019-04-13T16:48:32.467Z,103267.45
2019-04-13T16:51:22.957Z,103264.91
2019-04-13T16:54:03.699Z,103262.87
2019-04-13T16:56:35.327Z,103269.88
2019-04-13T16:59:18.516Z,103275.19
2019-04-13T17:02:13.211Z,103269.56
2019-04-13T17:04:53.682Z,103271.71
2019-04-13T17:07:24.082Z,103275.58
2019-04-13T17:09:54.326Z,103274.34
2019-04-13T17:12:32.730Z,103269.95
2019-04-13T17:14:56.348Z,103270.85
2019-04-13T17:17:26.361Z,103282.77
2019-04-13T17:20:18.422Z,103281.49
2019-04-13T17:23:10.771Z,103284.38
2019-04-13T17:26:00.094Z,103287.52
2019-04-13T17:28:48.044Z,103294.93
2019-04-13T17:31:43.473Z,103305.69
2019-04-13T17:34:19.301Z,103302.94
2019-04-13T17:36:50.020Z,103303.58
2019-04-13T17:39:19.889Z,103307.20
2019-04-13T17:42:08.023Z,103305.23
2019-04-13T17:44:37.697Z,103309.77
2019-04-13T17:47:29.269Z,103314.55
2019-04-13T17:50:16.296Z,103312.31
2019-04-13T17:53:24.792Z,103315.16
2019-04-13T17:55:59.185Z,103313.67
2019-04-13T17:58:44.806Z,103323.63
2019-04-13T18:01:31.516Z,103327.50
2019-04-13T18:04:18.825Z,103323.44
2019-04-13T18:06:58.783Z,103324.42
2019-04-13T18:09:53.731Z,103321.63
2019-04-13T18:12:50.270Z,103325.45
2019-04-13T18:15:31.100Z,103330.61
2019-04-13T18:18:20.233Z,103333.94
2019-04-13T18:20:50.744Z,103335.69
2019-04-13T18:23:21.062Z,103335.59
2019-04-13T18:25:54.564Z,103336.85
2019-04-13T18:28:22.903Z,103343.02
2019-04-13T18:30:52.440Z,103339.31
2019-04-13T18:33:22.458Z,103344.59
2019-04-13T18:35:52.702Z,103350.36
2019-04-13T18:38:23.170Z,103350.07
2019-04-13T18:40:53.702Z,103351.08
2019-04-13T18:43:27.662Z,103358.34
2019-04-13T18:45:54.273Z,103361.31
2019-04-13T18:48:23.495Z,103361.55
2019-04-13T18:50:53.972Z,103365.09
2019-04-13T18:53:23.452Z,103364.66
2019-04-13T18:55:53.743Z,103366.19
2019-04-13T18:58:23.194Z,103370.55
2019-04-13T19:00:52.937Z,103367.91
2019-04-13T19:03:23.425Z,103368.52
2019-04-13T19:05:53.091Z,103369.98
2019-04-13T19:08:22.392Z,103374.27
2019-04-13T19:10:53.289Z,103370.69
2019-04-13T19:13:22.666Z,103374.66
2019-04-13T19:15:52.020Z,103372.92
2019-04-13T19:18:21.254Z,103373.77
2019-04-13T19:20:50.741Z,103372.94
2019-04-13T19:23:19.986Z,103376.23
2019-04-13T19:25:49.194Z,103377.98
2019-04-13T19:28:18.624Z,103374.41
2019-04-13T19:30:47.819Z,103378.00
2019-04-13T19:33:17.097Z,103385.47
2019-04-13T19:35:46.587Z,103384.17
2019-04-13T19:38:15.815Z,103390.66
2019-04-13T19:40:45.017Z,103391.27
2019-04-13T19:43:16.487Z,103394.62
2019-04-13T19:45:45.381Z,103393.70
2019-04-13T19:48:16.406Z,103398.73
2019-04-13T19:50:45.734Z,103403.00
2019-04-13T19:53:34.053Z,103405.75
2019-04-13T19:56:09.018Z,103403.16
2019-04-13T19:58:38.695Z,103408.64
2019-04-13T20:01:07.978Z,103396.98
2019-04-13T20:03:37.233Z,103403.39
2019-04-13T20:06:18.244Z,103399.34
2019-04-13T20:08:37.765Z,103402.47
2019-04-13T20:11:07.017Z,103403.61
2019-04-13T20:13:44.272Z,103405.83
2019-04-13T20:16:08.335Z,103402.63
2019-04-13T20:18:38.109Z,103399.27
2019-04-13T20:21:07.312Z,103406.13
2019-04-13T20:23:36.514Z,103412.30
2019-04-13T20:26:06.029Z,103413.45
2019-04-13T20:28:35.420Z,103401.70
2019-04-13T20:31:05.203Z,103404.98
2019-04-13T20:33:35.005Z,103402.55
2019-04-13T20:36:10.071Z,103413.30
2019-04-13T20:38:36.754Z,103411.77
2019-04-13T20:41:08.486Z,103412.91
2019-04-13T20:43:51.159Z,103413.68
2019-04-13T20:46:10.358Z,103413.14
2019-04-13T20:48:40.070Z,103416.42
2019-04-13T20:51:10.351Z,103411.09
2019-04-13T20:53:40.197Z,103410.70
2019-04-13T20:56:09.788Z,103411.39
2019-04-13T20:58:40.225Z,103416.42
2019-04-13T21:01:10.453Z,103416.88
2019-04-13T21:03:40.240Z,103407.20
2019-04-13T21:06:10.753Z,103404.84
2019-04-13T21:08:41.193Z,103408.95
2019-04-13T21:11:11.033Z,103408.11
2019-04-13T21:13:40.359Z,103413.83
2019-04-13T21:16:10.624Z,103418.56
2019-04-13T21:18:40.786Z,103419.70
2019-04-13T21:21:10.622Z,103408.64
2019-04-13T21:23:40.675Z,103413.45
2019-04-13T21:26:10.935Z,103426.26
2019-04-13T21:28:40.859Z,103416.05
2019-04-13T21:31:10.762Z,103411.77
2019-04-13T21:33:40.769Z,103423.74
2019-04-13T21:36:10.968Z,103425.19
2019-04-13T21:38:40.964Z,103420.31
2019-04-13T21:41:10.767Z,103413.14
2019-04-13T21:43:41.109Z,103421.61
2019-04-13T21:46:10.847Z,103416.34
2019-04-13T21:48:41.329Z,103422.30
2019-04-13T21:51:42.279Z,103419.47
2019-04-13T21:54:15.235Z,103417.49
2019-04-13T21:56:45.209Z,103422.14
2019-04-13T21:59:15.131Z,103420.69
2019-04-13T22:02:09.615Z,103423.66
2019-04-13T22:04:39.151Z,103431.52
2019-04-13T22:07:09.253Z,103431.97
2019-04-13T22:09:39.147Z,103434.56
2019-04-13T22:12:09.056Z,103430.67
2019-04-13T22:14:45.345Z,103435.70
2019-04-13T22:17:09.627Z,103427.02
2019-04-13T22:19:39.756Z,103429.38
2019-04-13T22:22:09.746Z,103428.08
2019-04-13T22:24:39.862Z,103429.30
2019-04-13T22:27:10.964Z,103436.07
2019-04-13T22:29:50.907Z,103430.42
2019-04-13T22:32:37.038Z,103431.72
2019-04-13T22:35:26.226Z,103433.63
2019-04-13T22:37:56.023Z,103428.36
2019-04-13T22:40:25.740Z,103424.62
2019-04-13T22:42:56.435Z,103430.56
2019-04-13T22:45:26.158Z,103430.56
2019-04-13T22:48:03.473Z,103431.97
2019-04-13T22:50:54.535Z,103433.70
2019-04-13T22:53:50.676Z,103431.13
2019-04-13T22:56:26.699Z,103426.70
2019-04-13T22:58:56.272Z,103433.84
2019-04-13T23:01:29.079Z,103436.34
2019-04-13T23:03:59.415Z,103436.19
2019-04-13T23:06:29.299Z,103435.43
2019-04-13T23:08:59.558Z,103437.10
2019-04-13T23:11:30.140Z,103442.89
2019-04-13T23:14:00.473Z,103437.93
2019-04-13T23:16:30.319Z,103442.20
2019-04-13T23:19:00.216Z,103443.33
2019-04-13T23:21:29.481Z,103439.51
2019-04-13T23:23:59.491Z,103442.48
2019-04-13T23:26:29.797Z,103439.51
2019-04-13T23:28:59.747Z,103443.23
2019-04-13T23:31:30.414Z,103439.73
2019-04-13T23:34:00.726Z,103443.39
2019-04-13T23:36:31.119Z,103441.95
2019-04-13T23:39:01.697Z,103436.61
2019-04-13T23:41:32.195Z,103435.16
2019-04-13T23:44:02.718Z,103433.39
2019-04-13T23:46:32.878Z,103432.16
2019-04-13T23:49:02.310Z,103432.82
2019-04-13T23:51:31.699Z,103432.50
2019-04-13T23:54:02.142Z,103441.78
2019-04-13T23:56:47.732Z,103438.44
2019-04-13T23:59:35.005Z,103446.20
